createdAt,value
2023-05-19T00:01:49.785Z,77983.22
2023-05-19T00:04:16.544Z,77981.19
2023-05-19T00:06:44.712Z,77983.22
2023-05-19T00:09:12.250Z,77989.34
2023-05-19T00:11:39.957Z,77985.28
2023-05-19T00:14:09.318Z,77991.38
2023-05-19T00:16:40.527Z,78001.59
2023-05-19T00:19:11.987Z,77997.50
2023-05-19T00:21:38.917Z,78001.59
2023-05-19T00:24:06.264Z,78007.69
2023-05-19T00:26:32.829Z,78015.88
2023-05-19T00:29:03.741Z,78021.97
2023-05-19T00:31:31.574Z,78036.25
2023-05-19T00:33:58.079Z,78032.19
2023-05-19T00:36:25.713Z,78038.31
2023-05-19T00:38:52.207Z,78036.25
2023-05-19T00:41:18.805Z,78044.41
2023-05-19T00:43:45.615Z,78048.50
2023-05-19T00:46:12.115Z,78054.63
2023-05-19T00:48:38.583Z,78050.53
2023-05-19T00:51:06.372Z,78058.69
2023-05-19T00:53:34.510Z,78056.66
2023-05-19T00:56:02.512Z,78058.69
2023-05-19T00:58:30.794Z,78062.78
2023-05-19T01:01:07.281Z,78064.81
2023-05-19T01:03:35.934Z,78072.97
2023-05-19T01:06:05.846Z,78068.91
2023-05-19T01:08:33.367Z,78075.03
2023-05-19T01:11:00.231Z,78077.06
2023-05-19T01:13:30.647Z,78070.94
2023-05-19T01:16:06.972Z,78075.03
2023-05-19T01:18:39.819Z,78075.03
2023-05-19T01:21:26.098Z,78068.91
2023-05-19T01:24:07.040Z,78093.38
2023-05-19T01:27:03.651Z,78089.28
2023-05-19T01:29:42.594Z,78085.22
2023-05-19T01:32:11.902Z,78091.34
2023-05-19T01:34:42.573Z,78089.28
2023-05-19T01:37:09.828Z,78095.41
2023-05-19T01:39:37.190Z,78097.47
2023-05-19T01:42:04.652Z,78101.53
2023-05-19T01:44:32.661Z,78103.56
2023-05-19T01:46:59.942Z,78115.81
2023-05-19T01:49:26.397Z,78123.97
2023-05-19T01:51:54.085Z,78128.06
2023-05-19T01:54:22.020Z,78128.06
2023-05-19T01:57:15.826Z,78134.16
2023-05-19T02:00:07.767Z,78138.25
2023-05-19T02:02:59.724Z,78142.34
2023-05-19T02:05:30.942Z,78144.38
2023-05-19T02:08:06.076Z,78144.38
2023-05-19T02:10:36.728Z,78148.44
2023-05-19T02:13:06.794Z,78158.66
2023-05-19T02:15:42.524Z,78156.59
2023-05-19T02:18:12.342Z,78166.81
2023-05-19T02:20:39.984Z,78164.78
2023-05-19T02:23:06.860Z,78172.94
2023-05-19T02:25:33.404Z,78172.94
2023-05-19T02:28:00.248Z,78177.00
2023-05-19T02:30:31.691Z,78185.16
2023-05-19T02:33:00.480Z,78181.09
2023-05-19T02:35:27.873Z,78179.06
2023-05-19T02:37:54.300Z,78187.22
2023-05-19T02:40:21.420Z,78187.22
2023-05-19T02:42:47.842Z,78187.22
2023-05-19T02:45:14.674Z,78187.22
2023-05-19T02:47:41.535Z,78187.22
2023-05-19T02:50:08.713Z,78191.28
2023-05-19T02:52:35.279Z,78195.38
2023-05-19T02:55:01.779Z,78195.38
2023-05-19T02:57:31.517Z,78189.25
2023-05-19T02:59:57.994Z,78195.38
2023-05-19T03:02:24.401Z,78189.25
2023-05-19T03:04:51.507Z,78201.50
2023-05-19T03:07:17.913Z,78213.72
2023-05-19T03:09:44.334Z,78209.66
2023-05-19T03:12:10.871Z,78209.66
2023-05-19T03:14:38.493Z,78225.97
2023-05-19T03:17:07.662Z,78232.09
2023-05-19T03:19:34.333Z,78240.25
2023-05-19T03:22:00.920Z,78236.16
2023-05-19T03:24:27.465Z,78246.38
2023-05-19T03:26:54.786Z,78242.28
2023-05-19T03:29:21.722Z,78248.41
2023-05-19T03:31:48.416Z,78252.47
2023-05-19T03:34:16.236Z,78254.53
2023-05-19T03:36:43.038Z,78252.47
2023-05-19T03:39:14.380Z,78250.44
2023-05-19T03:41:40.797Z,78258.59
2023-05-19T03:44:07.245Z,78252.47
2023-05-19T03:46:33.748Z,78260.66
2023-05-19T03:49:28.375Z,78260.66
2023-05-19T03:51:58.042Z,78264.72
2023-05-19T03:54:32.187Z,78262.69
2023-05-19T03:56:58.666Z,78264.72
2023-05-19T03:59:25.151Z,78270.84
2023-05-19T04:01:52.678Z,78270.84
2023-05-19T04:04:19.211Z,78266.75
2023-05-19T04:06:45.673Z,78270.84
2023-05-19T04:09:13.740Z,78268.81
2023-05-19T04:11:40.874Z,78266.75
2023-05-19T04:14:08.358Z,78266.75
2023-05-19T04:16:35.868Z,78270.84
2023-05-19T04:19:02.570Z,78270.84
2023-05-19T04:21:29.065Z,78272.88
2023-05-19T04:23:55.643Z,78270.84
2023-05-19T04:26:22.625Z,78266.75
2023-05-19T04:28:49.729Z,78264.72
2023-05-19T04:31:16.979Z,78256.56
2023-05-19T04:33:43.556Z,78258.59
2023-05-19T04:36:11.382Z,78258.59
2023-05-19T04:38:40.310Z,78258.59
2023-05-19T04:41:12.093Z,78250.44
2023-05-19T04:43:41.853Z,78248.41
2023-05-19T04:46:13.182Z,78248.41
2023-05-19T04:48:41.034Z,78242.28
2023-05-19T04:51:07.495Z,78221.88
2023-05-19T04:53:34.209Z,78221.88
2023-05-19T04:56:02.031Z,78221.88
2023-05-19T04:58:30.402Z,78221.88
2023-05-19T05:00:58.482Z,78203.53
2023-05-19T05:03:26.095Z,78199.44
2023-05-19T05:05:52.796Z,78185.16
2023-05-19T05:08:23.293Z,78174.97
2023-05-19T05:10:52.437Z,78170.88
2023-05-19T05:13:22.274Z,78168.84
2023-05-19T05:15:49.485Z,78154.56
2023-05-19T05:18:16.232Z,78148.44
2023-05-19T05:20:43.460Z,78148.44
2023-05-19T05:23:14.502Z,78144.38
2023-05-19T05:25:44.402Z,78130.09
2023-05-19T05:28:11.473Z,78134.16
2023-05-19T05:30:38.055Z,78109.69
2023-05-19T05:33:06.562Z,78109.69
2023-05-19T05:35:36.595Z,78085.22
2023-05-19T05:38:04.187Z,78081.13
2023-05-19T05:40:30.948Z,78060.75
2023-05-19T05:42:58.927Z,78046.47
2023-05-19T05:45:28.545Z,78042.38
2023-05-19T05:47:55.589Z,78036.25
2023-05-19T05:50:23.193Z,78011.78
2023-05-19T05:52:50.893Z,77997.50
2023-05-19T05:55:18.365Z,77987.31
2023-05-19T05:57:45.059Z,77966.91
2023-05-19T06:00:17.967Z,77956.72
2023-05-19T06:02:51.719Z,77940.41
2023-05-19T06:05:19.780Z,77920.00
2023-05-19T06:07:48.051Z,77920.00
2023-05-19T06:10:19.656Z,77909.78
2023-05-19T06:12:47.044Z,77899.59
2023-05-19T06:15:13.725Z,77883.28
2023-05-19T06:17:42.835Z,77879.19
2023-05-19T06:20:10.089Z,77860.84
2023-05-19T06:22:37.110Z,77832.28
2023-05-19T06:25:05.734Z,77818.00
2023-05-19T06:27:34.755Z,77805.78
2023-05-19T06:30:02.300Z,77797.63
2023-05-19T06:32:32.651Z,77779.25
2023-05-19T06:35:00.187Z,77771.09
2023-05-19T06:37:26.746Z,77756.81
2023-05-19T06:39:53.759Z,77746.63
2023-05-19T06:42:22.530Z,77750.69
2023-05-19T06:44:56.728Z,77722.16
2023-05-19T06:47:23.372Z,77714.00
2023-05-19T06:49:54.817Z,77691.56
2023-05-19T06:52:24.433Z,77679.31
2023-05-19T06:54:51.016Z,77667.06
2023-05-19T06:57:17.631Z,77663.00
2023-05-19T06:59:46.546Z,77640.56
2023-05-19T07:02:13.878Z,77650.75
2023-05-19T07:04:40.981Z,77626.28
2023-05-19T07:07:07.688Z,77616.09
2023-05-19T07:09:34.736Z,77609.97
2023-05-19T07:12:02.482Z,77607.94
2023-05-19T07:14:29.740Z,77589.56
2023-05-19T07:16:56.411Z,77581.41
2023-05-19T07:19:24.112Z,77569.19
2023-05-19T07:21:51.433Z,77565.09
2023-05-19T07:24:17.957Z,77554.91
2023-05-19T07:26:45.120Z,77540.63
2023-05-19T07:29:11.548Z,77520.22
2023-05-19T07:31:38.021Z,77520.22
2023-05-19T07:34:04.544Z,77501.88
2023-05-19T07:36:31.271Z,77485.56
2023-05-19T07:38:57.891Z,77483.50
2023-05-19T07:41:24.334Z,77483.50
2023-05-19T07:43:50.775Z,77469.25
2023-05-19T07:46:17.385Z,77477.41
2023-05-19T07:48:44.137Z,77473.31
2023-05-19T07:51:12.595Z,77463.13
2023-05-19T07:53:39.266Z,77442.72
2023-05-19T07:56:05.817Z,77432.53
2023-05-19T07:58:32.272Z,77424.38
2023-05-19T08:00:59.313Z,77412.13
2023-05-19T08:03:26.843Z,77391.75
2023-05-19T08:05:53.428Z,77383.59
2023-05-19T08:08:19.939Z,77383.59
2023-05-19T08:10:46.486Z,77365.22
2023-05-19T08:13:12.949Z,77365.22
2023-05-19T08:15:39.611Z,77361.16
2023-05-19T08:18:06.235Z,77344.84
2023-05-19T08:20:34.084Z,77330.56
2023-05-19T08:23:00.776Z,77320.34
2023-05-19T08:25:27.467Z,77314.25
2023-05-19T08:27:53.982Z,77297.94
2023-05-19T08:30:20.494Z,77287.72
2023-05-19T08:32:47.368Z,77285.69
2023-05-19T08:35:13.976Z,77283.66
2023-05-19T08:37:40.909Z,77275.50
2023-05-19T08:40:08.873Z,77269.38
2023-05-19T08:42:35.490Z,77279.56
2023-05-19T08:45:02.453Z,77261.22
2023-05-19T08:47:29.593Z,77253.06
2023-05-19T08:50:05.183Z,77240.81
2023-05-19T08:52:53.510Z,77220.44
2023-05-19T08:55:29.005Z,77214.31
2023-05-19T08:57:56.254Z,77210.22
2023-05-19T09:00:23.318Z,77191.88
2023-05-19T09:03:00.197Z,77177.59
2023-05-19T09:05:33.253Z,77159.25
2023-05-19T09:08:02.632Z,77140.91
2023-05-19T09:10:29.431Z,77157.22
2023-05-19T09:12:56.220Z,77177.59
2023-05-19T09:15:27.016Z,77181.69
2023-05-19T09:18:06.925Z,77175.56
2023-05-19T09:20:37.970Z,77185.75
2023-05-19T09:23:05.557Z,77208.19
2023-05-19T09:25:32.211Z,77206.16
2023-05-19T09:27:58.836Z,77202.06
2023-05-19T09:30:25.961Z,77179.63
2023-05-19T09:32:52.494Z,77179.63
2023-05-19T09:35:20.566Z,77159.25
2023-05-19T09:37:47.033Z,77155.16
2023-05-19T09:40:14.992Z,77140.91
2023-05-19T09:42:41.972Z,77136.81
2023-05-19T09:45:09.379Z,77124.56
2023-05-19T09:47:38.151Z,77122.53
2023-05-19T09:50:08.822Z,77091.94
2023-05-19T09:52:39.175Z,77091.94
2023-05-19T09:55:09.106Z,77102.16
2023-05-19T09:57:37.274Z,77087.88
2023-05-19T10:00:18.021Z,77081.75
2023-05-19T10:02:46.516Z,77069.50
2023-05-19T10:05:17.329Z,77069.50
2023-05-19T10:07:45.726Z,77061.34
2023-05-19T10:10:13.896Z,77051.16
2023-05-19T10:12:41.024Z,77043.00
2023-05-19T10:15:10.516Z,77038.94
2023-05-19T10:17:41.313Z,77014.47
2023-05-19T10:20:17.330Z,77010.38
2023-05-19T10:22:45.999Z,77010.38
2023-05-19T10:25:15.070Z,77022.63
2023-05-19T10:27:48.600Z,77038.94
2023-05-19T10:30:20.272Z,77036.88
2023-05-19T10:32:48.595Z,77026.69
2023-05-19T10:35:26.912Z,77012.41
2023-05-19T10:37:59.210Z,77020.56
2023-05-19T10:40:53.755Z,77008.34
2023-05-19T10:43:44.643Z,76985.91
2023-05-19T10:46:11.324Z,76981.81
2023-05-19T10:48:37.758Z,76971.63
2023-05-19T10:51:04.921Z,76965.50
2023-05-19T10:53:32.868Z,76965.50
2023-05-19T10:56:06.638Z,76973.66
2023-05-19T10:58:36.809Z,76961.44
2023-05-19T11:01:07.989Z,76965.50
2023-05-19T11:03:45.862Z,76949.19
2023-05-19T11:06:24.794Z,76920.66
2023-05-19T11:08:56.779Z,76922.69
2023-05-19T11:11:23.622Z,76930.84
2023-05-19T11:13:56.620Z,76916.56
2023-05-19T11:16:31.208Z,76934.94
2023-05-19T11:19:01.676Z,76922.69
2023-05-19T11:21:55.143Z,76912.50
2023-05-19T11:24:37.330Z,76892.09
2023-05-19T11:27:37.314Z,76898.22
2023-05-19T11:30:15.804Z,76881.91
2023-05-19T11:32:43.939Z,76892.09
2023-05-19T11:35:10.976Z,76896.19
2023-05-19T11:37:37.467Z,76900.25
2023-05-19T11:40:07.930Z,76902.28
2023-05-19T11:42:36.034Z,76902.28
2023-05-19T11:45:03.199Z,76902.28
2023-05-19T11:47:38.771Z,76908.41
2023-05-19T11:50:13.868Z,76896.19
2023-05-19T11:52:44.939Z,76906.38
2023-05-19T11:55:16.024Z,76906.38
2023-05-19T11:58:03.001Z,76888.03
2023-05-19T12:00:37.580Z,76881.91
2023-05-19T12:03:04.500Z,76879.88
2023-05-19T12:05:34.450Z,76877.81
2023-05-19T12:08:02.773Z,76877.81
2023-05-19T12:10:33.721Z,76873.75
2023-05-19T12:13:00.729Z,76879.88
2023-05-19T12:15:27.227Z,76865.59
2023-05-19T12:17:58.894Z,76851.31
2023-05-19T12:20:27.107Z,76832.97
2023-05-19T12:22:56.202Z,76832.97
2023-05-19T12:25:23.858Z,76835.00
2023-05-19T12:27:52.666Z,76826.84
2023-05-19T12:30:26.167Z,76808.50
2023-05-19T12:32:53.848Z,76804.41
2023-05-19T12:35:20.641Z,76812.56
2023-05-19T12:37:49.092Z,76810.53
2023-05-19T12:40:16.810Z,76804.41
2023-05-19T12:42:48.492Z,76804.41
2023-05-19T12:45:15.232Z,76820.72
2023-05-19T12:47:41.767Z,76810.53
2023-05-19T12:50:09.699Z,76808.50
2023-05-19T12:52:43.711Z,76810.53
2023-05-19T12:55:11.755Z,76794.22
2023-05-19T12:57:40.000Z,76782.00
2023-05-19T13:00:12.879Z,76769.75
2023-05-19T13:02:55.186Z,76767.72
2023-05-19T13:05:22.631Z,76761.59
2023-05-19T13:07:59.344Z,76755.47
2023-05-19T13:10:29.484Z,76755.47
2023-05-19T13:12:56.877Z,76763.63
2023-05-19T13:15:26.149Z,76763.63
2023-05-19T13:17:53.602Z,76759.56
2023-05-19T13:20:21.535Z,76765.66
2023-05-19T13:22:48.719Z,76745.28
2023-05-19T13:25:15.367Z,76755.47
2023-05-19T13:27:41.836Z,76761.59
2023-05-19T13:30:08.833Z,76753.44
2023-05-19T13:32:35.332Z,76735.09
2023-05-19T13:35:02.157Z,76747.31
2023-05-19T13:37:28.763Z,76749.34
2023-05-19T13:39:55.815Z,76739.16
2023-05-19T13:42:22.253Z,76735.09
2023-05-19T13:44:48.788Z,76733.03
2023-05-19T13:47:15.362Z,76733.03
2023-05-19T13:49:41.801Z,76735.09
2023-05-19T13:52:08.352Z,76722.84
2023-05-19T13:54:34.916Z,76720.81
2023-05-19T13:57:01.509Z,76714.69
2023-05-19T13:59:28.299Z,76722.84
2023-05-19T14:01:54.886Z,76712.66
2023-05-19T14:04:21.476Z,76710.63
2023-05-19T14:06:47.936Z,76700.41
2023-05-19T14:09:14.910Z,76694.31
2023-05-19T14:11:41.426Z,76686.16
2023-05-19T14:14:09.311Z,76686.16
2023-05-19T14:16:38.371Z,76694.31
2023-05-19T14:19:05.382Z,76722.84
2023-05-19T14:21:32.536Z,76706.53
2023-05-19T14:23:59.430Z,76702.47
2023-05-19T14:26:27.495Z,76692.25
2023-05-19T14:28:56.967Z,76694.31
2023-05-19T14:31:23.636Z,76694.31
2023-05-19T14:33:51.171Z,76690.22
2023-05-19T14:36:17.996Z,76686.16
2023-05-19T14:38:44.514Z,76675.94
2023-05-19T14:41:10.944Z,76675.94
2023-05-19T14:43:37.368Z,76667.78
2023-05-19T14:46:03.870Z,76678.00
2023-05-19T14:48:30.271Z,76680.03
2023-05-19T14:50:56.691Z,76678.00
2023-05-19T14:53:23.433Z,76688.19
2023-05-19T14:55:50.173Z,76667.78
2023-05-19T14:58:27.686Z,76647.41
2023-05-19T15:00:57.810Z,76641.28
2023-05-19T15:03:24.762Z,76641.28
2023-05-19T15:05:51.242Z,76651.47
2023-05-19T15:08:17.685Z,76643.31
2023-05-19T15:10:48.596Z,76635.16
2023-05-19T15:13:15.325Z,76651.47
2023-05-19T15:15:41.768Z,76663.72
2023-05-19T15:18:08.260Z,76669.84
2023-05-19T15:20:34.869Z,76669.84
2023-05-19T15:23:01.566Z,76659.63
2023-05-19T15:25:28.014Z,76663.72
2023-05-19T15:27:54.470Z,76647.41
2023-05-19T15:30:20.922Z,76629.06
2023-05-19T15:32:47.373Z,76653.53
2023-05-19T15:35:14.085Z,76647.41
2023-05-19T15:37:40.565Z,76659.63
2023-05-19T15:40:07.596Z,76686.16
2023-05-19T15:42:34.017Z,76704.50
2023-05-19T15:45:03.053Z,76708.56
2023-05-19T15:47:29.599Z,76690.22
2023-05-19T15:49:56.062Z,76696.34
2023-05-19T15:52:22.618Z,76692.25
2023-05-19T15:54:49.025Z,76682.06
2023-05-19T15:57:15.507Z,76669.84
2023-05-19T15:59:42.002Z,76663.72
2023-05-19T16:02:08.645Z,76653.53
2023-05-19T16:04:35.210Z,76651.47
2023-05-19T16:07:01.623Z,76649.44
2023-05-19T16:09:28.112Z,76655.56
2023-05-19T16:11:54.601Z,76661.69
2023-05-19T16:14:21.029Z,76678.00
2023-05-19T16:16:47.575Z,76665.75
2023-05-19T16:19:14.126Z,76659.63
2023-05-19T16:21:40.609Z,76659.63
2023-05-19T16:24:07.096Z,76653.53
2023-05-19T16:26:34.317Z,76645.38
2023-05-19T16:29:00.830Z,76635.16
2023-05-19T16:31:27.395Z,76641.28
2023-05-19T16:33:53.844Z,76631.09
2023-05-19T16:36:22.596Z,76635.16
2023-05-19T16:38:49.208Z,76639.25
2023-05-19T16:41:15.649Z,76649.44
2023-05-19T16:43:42.099Z,76645.38
2023-05-19T16:46:09.836Z,76655.56
2023-05-19T16:48:36.581Z,76659.63
2023-05-19T16:51:03.288Z,76641.28
2023-05-19T16:53:29.727Z,76655.56
2023-05-19T16:55:56.396Z,76678.00
2023-05-19T16:58:22.809Z,76665.75
2023-05-19T17:00:51.825Z,76651.47
2023-05-19T17:03:18.703Z,76663.72
2023-05-19T17:05:45.668Z,76655.56
2023-05-19T17:08:12.653Z,76663.72
2023-05-19T17:10:39.267Z,76673.91
2023-05-19T17:13:05.774Z,76665.75
2023-05-19T17:15:33.744Z,76678.00
2023-05-19T17:18:00.244Z,76678.00
2023-05-19T17:20:26.807Z,76667.78
2023-05-19T17:22:53.300Z,76667.78
2023-05-19T17:25:19.744Z,76665.75
2023-05-19T17:27:46.219Z,76671.88
2023-05-19T17:30:13.539Z,76669.84
2023-05-19T17:32:40.076Z,76675.94
2023-05-19T17:35:07.159Z,76678.00
2023-05-19T17:37:33.580Z,76680.03
2023-05-19T17:40:00.052Z,76692.25
2023-05-19T17:42:26.595Z,76694.31
2023-05-19T17:44:53.072Z,76694.31
2023-05-19T17:47:19.539Z,76700.41
2023-05-19T17:49:46.027Z,76706.53
2023-05-19T17:52:12.763Z,76698.38
2023-05-19T17:54:39.429Z,76708.56
2023-05-19T17:57:10.755Z,76712.66
2023-05-19T17:59:37.470Z,76700.41
2023-05-19T18:02:04.672Z,76706.53
2023-05-19T18:04:31.646Z,76708.56
2023-05-19T18:06:59.361Z,76712.66
2023-05-19T18:09:28.747Z,76712.66
2023-05-19T18:11:56.854Z,76722.84
2023-05-19T18:14:23.343Z,76718.78
2023-05-19T18:16:49.980Z,76718.78
2023-05-19T18:19:16.558Z,76710.63
2023-05-19T18:21:43.021Z,76716.72
2023-05-19T18:24:09.458Z,76720.81
2023-05-19T18:26:37.703Z,76722.84
2023-05-19T18:29:04.928Z,76733.03
2023-05-19T18:31:31.546Z,76733.03
2023-05-19T18:33:57.975Z,76745.28
2023-05-19T18:36:24.387Z,76741.19
2023-05-19T18:38:50.834Z,76747.31
2023-05-19T18:41:17.329Z,76743.25
2023-05-19T18:43:43.901Z,76753.44
2023-05-19T18:46:10.406Z,76761.59
2023-05-19T18:48:36.985Z,76771.78
2023-05-19T18:51:03.705Z,76773.81
2023-05-19T18:53:34.575Z,76777.91
2023-05-19T18:56:01.015Z,76790.16
2023-05-19T18:58:32.660Z,76798.31
2023-05-19T19:00:59.200Z,76804.41
2023-05-19T19:03:26.474Z,76822.78
2023-05-19T19:05:59.742Z,76818.69
2023-05-19T19:08:26.182Z,76824.81
2023-05-19T19:10:53.472Z,76832.97
2023-05-19T19:13:20.321Z,76839.09
2023-05-19T19:15:46.811Z,76845.19
2023-05-19T19:18:13.296Z,76859.47
2023-05-19T19:20:39.774Z,76873.75
2023-05-19T19:23:06.694Z,76881.91
2023-05-19T19:25:33.543Z,76888.03
2023-05-19T19:28:01.271Z,76898.22
2023-05-19T19:30:29.196Z,76904.34
2023-05-19T19:32:56.854Z,76904.34
2023-05-19T19:35:23.424Z,76920.66
2023-05-19T19:37:51.581Z,76930.84
2023-05-19T19:40:18.047Z,76941.03
2023-05-19T19:42:44.458Z,76949.19
2023-05-19T19:45:13.104Z,76949.19
2023-05-19T19:47:41.680Z,76961.44
2023-05-19T19:50:09.124Z,76967.56
2023-05-19T19:52:35.606Z,76975.72
2023-05-19T19:55:02.271Z,76989.97
2023-05-19T19:57:29.971Z,76992.03
2023-05-19T19:59:59.014Z,77000.19
2023-05-19T20:02:26.434Z,77008.34
2023-05-19T20:04:52.955Z,77014.47
2023-05-19T20:07:20.739Z,77020.56
2023-05-19T20:09:49.426Z,77024.66
2023-05-19T20:12:16.056Z,77038.94
2023-05-19T20:14:42.541Z,77047.09
2023-05-19T20:17:09.019Z,77049.13
2023-05-19T20:19:35.616Z,77059.31
2023-05-19T20:22:02.369Z,77063.41
2023-05-19T20:24:28.809Z,77071.56
2023-05-19T20:26:55.236Z,77069.50
2023-05-19T20:29:23.678Z,77075.63
2023-05-19T20:31:50.198Z,77083.78
2023-05-19T20:34:16.669Z,77087.88
2023-05-19T20:36:43.121Z,77098.06
2023-05-19T20:39:10.086Z,77108.25
2023-05-19T20:41:36.641Z,77106.22
2023-05-19T20:44:03.121Z,77120.50
2023-05-19T20:46:29.652Z,77126.63
2023-05-19T20:48:56.199Z,77132.72
2023-05-19T20:51:25.005Z,77136.81
2023-05-19T20:53:51.633Z,77149.06
2023-05-19T20:56:19.561Z,77147.00
2023-05-19T20:58:45.977Z,77159.25
2023-05-19T21:01:12.487Z,77169.44
2023-05-19T21:03:38.922Z,77171.47
2023-05-19T21:06:05.362Z,77179.63
2023-05-19T21:08:31.812Z,77181.69
2023-05-19T21:10:59.201Z,77189.84
2023-05-19T21:13:25.825Z,77198.00
2023-05-19T21:15:52.242Z,77202.06
2023-05-19T21:18:18.731Z,77208.19
2023-05-19T21:20:45.141Z,77212.28
2023-05-19T21:23:11.553Z,77212.28
2023-05-19T21:25:39.533Z,77220.44
2023-05-19T21:28:05.996Z,77220.44
2023-05-19T21:30:32.559Z,77226.53
2023-05-19T21:32:59.342Z,77230.63
2023-05-19T21:35:25.921Z,77242.88
2023-05-19T21:37:52.316Z,77246.94
2023-05-19T21:40:18.728Z,77248.97
2023-05-19T21:42:45.194Z,77251.03
2023-05-19T21:45:11.642Z,77248.97
2023-05-19T21:47:38.156Z,77261.22
2023-05-19T21:50:04.911Z,77263.25
2023-05-19T21:52:31.411Z,77269.38
2023-05-19T21:54:58.192Z,77275.50
2023-05-19T21:57:24.613Z,77277.53
2023-05-19T21:59:51.076Z,77279.56
2023-05-19T22:02:17.537Z,77279.56
2023-05-19T22:04:44.747Z,77283.66
2023-05-19T22:07:11.286Z,77289.78
2023-05-19T22:09:37.927Z,77295.88
2023-05-19T22:12:04.677Z,77291.81
2023-05-19T22:14:31.128Z,77289.78
2023-05-19T22:16:57.553Z,77295.88
2023-05-19T22:19:24.172Z,77295.88
2023-05-19T22:21:58.435Z,77299.97
2023-05-19T22:24:28.991Z,77291.81
2023-05-19T22:26:55.431Z,77291.81
2023-05-19T22:29:21.880Z,77297.94
2023-05-19T22:31:48.358Z,77306.09
2023-05-19T22:34:15.365Z,77304.03
2023-05-19T22:36:44.031Z,77306.09
2023-05-19T22:39:12.331Z,77304.03
2023-05-19T22:41:38.953Z,77306.09
2023-05-19T22:44:05.515Z,77299.97
2023-05-19T22:46:32.228Z,77304.03
2023-05-19T22:48:58.743Z,77308.13
2023-05-19T22:51:25.181Z,77308.13
2023-05-19T22:53:51.691Z,77312.19
2023-05-19T22:56:18.136Z,77308.13
2023-05-19T22:58:44.538Z,77306.09
2023-05-19T23:01:11.227Z,77310.16
2023-05-19T23:03:37.678Z,77304.03
2023-05-19T23:06:04.122Z,77310.16
2023-05-19T23:08:30.663Z,77310.16
2023-05-19T23:11:00.556Z,77308.13
2023-05-19T23:13:26.963Z,77306.09
2023-05-19T23:15:53.354Z,77304.03
2023-05-19T23:18:19.792Z,77310.16
2023-05-19T23:20:46.290Z,77304.03
2023-05-19T23:23:12.828Z,77308.13
2023-05-19T23:25:39.303Z,77312.19
2023-05-19T23:28:09.986Z,77316.28
2023-05-19T23:30:37.692Z,77322.41
2023-05-19T23:33:04.318Z,77328.50
2023-05-19T23:35:30.873Z,77330.56
2023-05-19T23:37:57.289Z,77328.50
2023-05-19T23:40:23.696Z,77330.56
2023-05-19T23:42:50.138Z,77338.72
2023-05-19T23:45:16.579Z,77342.78
2023-05-19T23:47:43.077Z,77346.88
2023-05-19T23:50:09.985Z,77355.03
2023-05-19T23:52:36.550Z,77357.06
2023-05-19T23:55:03.503Z,77359.09
2023-05-19T23:57:29.952Z,77361.16
2023-05-19T23:59:56.453Z,77369.31
